sensor_id;sensor_type;location;lat;lon;timestamp;temperature;humidity
38592;DHT22;24356;48.460;11.450;2022-10-18T00:00:53;11.60;91.00
38592;DHT22;24356;48.460;11.450;2022-10-18T00:03:19;11.50;90.90
38592;DHT22;24356;48.460;11.450;2022-10-18T00:05:46;11.50;91.00
38592;DHT22;24356;48.460;11.450;2022-10-18T00:08:12;11.50;91.00
38592;DHT22;24356;48.460;11.450;2022-10-18T00:10:38;11.50;91.10
38592;DHT22;24356;48.460;11.450;2022-10-18T00:13:03;11.50;90.90
38592;DHT22;24356;48.460;11.450;2022-10-18T00:15:29;11.50;91.00
38592;DHT22;24356;48.460;11.450;2022-10-18T00:17:55;11.40;91.00
38592;DHT22;24356;48.460;11.450;2022-10-18T00:20:20;11.40;91.10
38592;DHT22;24356;48.460;11.450;2022-10-18T00:22:46;11.40;91.00
38592;DHT22;24356;48.460;11.450;2022-10-18T00:25:13;11.40;91.00
38592;DHT22;24356;48.460;11.450;2022-10-18T00:27:39;11.40;91.00
38592;DHT22;24356;48.460;11.450;2022-10-18T00:30:06;11.30;90.90
38592;DHT22;24356;48.460;11.450;2022-10-18T00:32:37;11.30;91.00
38592;DHT22;24356;48.460;11.450;2022-10-18T00:35:04;11.30;91.00
38592;DHT22;24356;48.460;11.450;2022-10-18T00:37:30;11.30;91.00
38592;DHT22;24356;48.460;11.450;2022-10-18T00:39:55;11.30;91.00
38592;DHT22;24356;48.460;11.450;2022-10-18T00:42:24;11.30;91.00
38592;DHT22;24356;48.460;11.450;2022-10-18T00:47:16;11.20;90.90
38592;DHT22;24356;48.460;11.450;2022-10-18T00:49:49;11.20;91.00
38592;DHT22;24356;48.460;11.450;2022-10-18T00:52:17;11.20;91.00
38592;DHT22;24356;48.460;11.450;2022-10-18T00:54:45;11.20;91.10
38592;DHT22;24356;48.460;11.450;2022-10-18T00:57:11;11.10;91.00
38592;DHT22;24356;48.460;11.450;2022-10-18T00:59:38;11.10;91.00
38592;DHT22;24356;48.460;11.450;2022-10-18T01:02:05;11.10;91.10
38592;DHT22;24356;48.460;11.450;2022-10-18T01:04:31;11.10;91.20
38592;DHT22;24356;48.460;11.450;2022-10-18T01:07:07;11.00;91.20
38592;DHT22;24356;48.460;11.450;2022-10-18T01:09:43;11.00;91.20
38592;DHT22;24356;48.460;11.450;2022-10-18T01:15:28;11.00;91.10
38592;DHT22;24356;48.460;11.450;2022-10-18T01:21:16;11.00;91.20
38592;DHT22;24356;48.460;11.450;2022-10-18T01:27:01;10.90;91.00
38592;DHT22;24356;48.460;11.450;2022-10-18T01:32:36;10.90;91.00
38592;DHT22;24356;48.460;11.450;2022-10-18T01:35:06;10.90;91.20
38592;DHT22;24356;48.460;11.450;2022-10-18T01:37:36;10.90;91.10
38592;DHT22;24356;48.460;11.450;2022-10-18T01:40:05;10.90;91.00
38592;DHT22;24356;48.460;11.450;2022-10-18T01:42:32;10.80;91.10
38592;DHT22;24356;48.460;11.450;2022-10-18T01:44:58;10.80;90.90
38592;DHT22;24356;48.460;11.450;2022-10-18T01:47:26;10.80;91.00
38592;DHT22;24356;48.460;11.450;2022-10-18T01:49:59;10.80;91.10
38592;DHT22;24356;48.460;11.450;2022-10-18T01:52:26;10.80;91.10
38592;DHT22;24356;48.460;11.450;2022-10-18T01:54:53;10.70;91.10
38592;DHT22;24356;48.460;11.450;2022-10-18T01:57:31;10.70;91.00
38592;DHT22;24356;48.460;11.450;2022-10-18T02:03:00;10.70;91.00
38592;DHT22;24356;48.460;11.450;2022-10-18T02:05:47;10.70;91.00
38592;DHT22;24356;48.460;11.450;2022-10-18T02:11:12;10.70;91.20
38592;DHT22;24356;48.460;11.450;2022-10-18T02:13:41;10.60;91.30
38592;DHT22;24356;48.460;11.450;2022-10-18T02:16:18;10.60;91.10
38592;DHT22;24356;48.460;11.450;2022-10-18T02:18:49;10.60;91.30
38592;DHT22;24356;48.460;11.450;2022-10-18T02:21:18;10.60;91.10
38592;DHT22;24356;48.460;11.450;2022-10-18T02:23:47;10.60;91.10
38592;DHT22;24356;48.460;11.450;2022-10-18T02:26:14;10.60;91.00
38592;DHT22;24356;48.460;11.450;2022-10-18T02:28:40;10.60;91.30
38592;DHT22;24356;48.460;11.450;2022-10-18T02:33:57;10.50;91.20
38592;DHT22;24356;48.460;11.450;2022-10-18T02:39:25;10.50;91.00
38592;DHT22;24356;48.460;11.450;2022-10-18T02:41:53;10.50;91.30
38592;DHT22;24356;48.460;11.450;2022-10-18T02:44:19;10.40;91.10
38592;DHT22;24356;48.460;11.450;2022-10-18T02:46:45;10.40;91.20
38592;DHT22;24356;48.460;11.450;2022-10-18T02:49:11;10.40;91.00
38592;DHT22;24356;48.460;11.450;2022-10-18T02:51:37;10.40;91.10
38592;DHT22;24356;48.460;11.450;2022-10-18T02:54:03;10.40;91.00
38592;DHT22;24356;48.460;11.450;2022-10-18T02:56:29;10.40;91.30
38592;DHT22;24356;48.460;11.450;2022-10-18T02:58:54;10.40;91.00
38592;DHT22;24356;48.460;11.450;2022-10-18T03:01:20;10.30;91.10
38592;DHT22;24356;48.460;11.450;2022-10-18T03:03:46;10.30;91.30
38592;DHT22;24356;48.460;11.450;2022-10-18T03:06:12;10.30;91.10
38592;DHT22;24356;48.460;11.450;2022-10-18T03:08:38;10.30;91.30
38592;DHT22;24356;48.460;11.450;2022-10-18T03:11:04;10.30;91.30
38592;DHT22;24356;48.460;11.450;2022-10-18T03:13:29;10.30;91.40
38592;DHT22;24356;48.460;11.450;2022-10-18T03:15:55;10.30;91.10
38592;DHT22;24356;48.460;11.450;2022-10-18T03:18:20;10.30;91.20
38592;DHT22;24356;48.460;11.450;2022-10-18T03:20:46;10.30;91.10
38592;DHT22;24356;48.460;11.450;2022-10-18T03:23:12;10.30;91.10
38592;DHT22;24356;48.460;11.450;2022-10-18T03:25:37;10.30;91.20
38592;DHT22;24356;48.460;11.450;2022-10-18T03:28:03;10.30;91.10
38592;DHT22;24356;48.460;11.450;2022-10-18T03:30:29;10.30;91.10
38592;DHT22;24356;48.460;11.450;2022-10-18T03:32:55;10.30;91.20
38592;DHT22;24356;48.460;11.450;2022-10-18T03:35:20;10.30;91.10
38592;DHT22;24356;48.460;11.450;2022-10-18T03:37:46;10.30;91.00
38592;DHT22;24356;48.460;11.450;2022-10-18T03:40:12;10.30;91.00
38592;DHT22;24356;48.460;11.450;2022-10-18T03:42:38;10.30;91.00
38592;DHT22;24356;48.460;11.450;2022-10-18T03:45:05;10.30;91.00
38592;DHT22;24356;48.460;11.450;2022-10-18T03:47:31;10.30;91.10
38592;DHT22;24356;48.460;11.450;2022-10-18T03:49:57;10.30;91.00
38592;DHT22;24356;48.460;11.450;2022-10-18T03:52:23;10.30;91.00
38592;DHT22;24356;48.460;11.450;2022-10-18T03:54:49;10.30;91.00
38592;DHT22;24356;48.460;11.450;2022-10-18T03:57:14;10.20;91.00
38592;DHT22;24356;48.460;11.450;2022-10-18T03:59:40;10.20;91.10
38592;DHT22;24356;48.460;11.450;2022-10-18T04:02:07;10.20;91.10
38592;DHT22;24356;48.460;11.450;2022-10-18T04:04:33;10.20;91.10
38592;DHT22;24356;48.460;11.450;2022-10-18T04:06:58;10.20;91.20
38592;DHT22;24356;48.460;11.450;2022-10-18T04:09:24;10.20;91.10
38592;DHT22;24356;48.460;11.450;2022-10-18T04:11:50;10.10;91.10
38592;DHT22;24356;48.460;11.450;2022-10-18T04:14:16;10.10;91.00
38592;DHT22;24356;48.460;11.450;2022-10-18T04:16:42;10.10;91.00
38592;DHT22;24356;48.460;11.450;2022-10-18T04:19:08;10.10;91.00
38592;DHT22;24356;48.460;11.450;2022-10-18T04:21:35;10.10;91.10
38592;DHT22;24356;48.460;11.450;2022-10-18T04:24:01;10.10;91.10
38592;DHT22;24356;48.460;11.450;2022-10-18T04:26:26;10.10;91.20
38592;DHT22;24356;48.460;11.450;2022-10-18T04:28:52;10.10;91.20
38592;DHT22;24356;48.460;11.450;2022-10-18T04:31:17;10.10;91.20
38592;DHT22;24356;48.460;11.450;2022-10-18T04:33:43;10.10;91.10
38592;DHT22;24356;48.460;11.450;2022-10-18T04:36:08;10.10;91.10
38592;DHT22;24356;48.460;11.450;2022-10-18T04:38:35;10.10;91.10
38592;DHT22;24356;48.460;11.450;2022-10-18T04:41:02;10.00;91.20
38592;DHT22;24356;48.460;11.450;2022-10-18T04:43:29;10.00;91.20
38592;DHT22;24356;48.460;11.450;2022-10-18T04:45:55;10.00;91.20
38592;DHT22;24356;48.460;11.450;2022-10-18T04:48:20;10.00;91.20
38592;DHT22;24356;48.460;11.450;2022-10-18T04:50:50;10.00;91.30
38592;DHT22;24356;48.460;11.450;2022-10-18T04:53:16;10.00;91.10
38592;DHT22;24356;48.460;11.450;2022-10-18T04:55:47;10.00;91.30
38592;DHT22;24356;48.460;11.450;2022-10-18T04:58:13;10.00;91.20
38592;DHT22;24356;48.460;11.450;2022-10-18T05:00:39;10.00;91.20
38592;DHT22;24356;48.460;11.450;2022-10-18T05:03:05;10.10;91.20
38592;DHT22;24356;48.460;11.450;2022-10-18T05:05:31;10.10;91.30
38592;DHT22;24356;48.460;11.450;2022-10-18T05:07:56;10.10;91.20
38592;DHT22;24356;48.460;11.450;2022-10-18T05:10:22;10.10;91.40
38592;DHT22;24356;48.460;11.450;2022-10-18T05:12:48;10.10;91.20
38592;DHT22;24356;48.460;11.450;2022-10-18T05:15:13;10.10;91.20
38592;DHT22;24356;48.460;11.450;2022-10-18T05:17:39;10.10;91.00
38592;DHT22;24356;48.460;11.450;2022-10-18T05:20:05;10.10;91.10
38592;DHT22;24356;48.460;11.450;2022-10-18T05:22:31;10.10;91.10
38592;DHT22;24356;48.460;11.450;2022-10-18T05:24:56;10.10;91.10
38592;DHT22;24356;48.460;11.450;2022-10-18T05:27:22;10.20;91.20
38592;DHT22;24356;48.460;11.450;2022-10-18T05:29:52;10.20;91.10
38592;DHT22;24356;48.460;11.450;2022-10-18T05:32:17;10.20;91.00
38592;DHT22;24356;48.460;11.450;2022-10-18T05:34:43;10.20;91.00
38592;DHT22;24356;48.460;11.450;2022-10-18T05:37:09;10.20;91.00
38592;DHT22;24356;48.460;11.450;2022-10-18T05:39:36;10.20;91.10
38592;DHT22;24356;48.460;11.450;2022-10-18T05:42:01;10.20;91.20
38592;DHT22;24356;48.460;11.450;2022-10-18T05:44:27;10.20;91.10
38592;DHT22;24356;48.460;11.450;2022-10-18T05:46:53;10.20;90.90
38592;DHT22;24356;48.460;11.450;2022-10-18T05:49:19;10.20;90.80
38592;DHT22;24356;48.460;11.450;2022-10-18T05:51:44;10.30;91.10
38592;DHT22;24356;48.460;11.450;2022-10-18T05:54:11;10.30;90.90
38592;DHT22;24356;48.460;11.450;2022-10-18T05:56:37;10.30;90.90
38592;DHT22;24356;48.460;11.450;2022-10-18T05:59:03;10.30;90.80
38592;DHT22;24356;48.460;11.450;2022-10-18T06:01:32;10.40;90.80
38592;DHT22;24356;48.460;11.450;2022-10-18T06:03:57;10.40;90.90
38592;DHT22;24356;48.460;11.450;2022-10-18T06:06:23;10.40;90.80
38592;DHT22;24356;48.460;11.450;2022-10-18T06:08:49;10.40;90.80
38592;DHT22;24356;48.460;11.450;2022-10-18T06:11:16;10.40;90.70
38592;DHT22;24356;48.460;11.450;2022-10-18T06:13:44;10.50;90.80
38592;DHT22;24356;48.460;11.450;2022-10-18T06:16:10;10.50;90.80
38592;DHT22;24356;48.460;11.450;2022-10-18T06:18:36;10.50;90.70
38592;DHT22;24356;48.460;11.450;2022-10-18T06:21:02;10.50;90.80
38592;DHT22;24356;48.460;11.450;2022-10-18T06:23:28;10.60;90.80
38592;DHT22;24356;48.460;11.450;2022-10-18T06:26:08;10.60;90.60
38592;DHT22;24356;48.460;11.450;2022-10-18T06:28:36;10.60;90.70
38592;DHT22;24356;48.460;11.450;2022-10-18T06:31:04;10.60;90.50
38592;DHT22;24356;48.460;11.450;2022-10-18T06:33:31;10.60;90.50
38592;DHT22;24356;48.460;11.450;2022-10-18T06:35:58;10.70;90.70
38592;DHT22;24356;48.460;11.450;2022-10-18T06:38:25;10.70;90.40
38592;DHT22;24356;48.460;11.450;2022-10-18T06:40:50;10.70;90.20
38592;DHT22;24356;48.460;11.450;2022-10-18T06:43:16;10.70;90.30
38592;DHT22;24356;48.460;11.450;2022-10-18T06:45:42;10.80;90.20
38592;DHT22;24356;48.460;11.450;2022-10-18T06:48:09;10.80;90.50
38592;DHT22;24356;48.460;11.450;2022-10-18T06:50:34;10.80;90.20
38592;DHT22;24356;48.460;11.450;2022-10-18T06:53:00;10.80;90.20
38592;DHT22;24356;48.460;11.450;2022-10-18T06:55:29;10.90;90.20
38592;DHT22;24356;48.460;11.450;2022-10-18T06:57:55;10.90;90.20
38592;DHT22;24356;48.460;11.450;2022-10-18T07:00:20;10.90;90.00
38592;DHT22;24356;48.460;11.450;2022-10-18T07:02:47;11.00;89.90
38592;DHT22;24356;48.460;11.450;2022-10-18T07:05:13;11.00;90.20
38592;DHT22;24356;48.460;11.450;2022-10-18T07:07:39;11.00;91.10
38592;DHT22;24356;48.460;11.450;2022-10-18T07:10:05;11.10;90.40
38592;DHT22;24356;48.460;11.450;2022-10-18T07:12:33;11.20;89.90
38592;DHT22;24356;48.460;11.450;2022-10-18T07:14:58;11.20;90.10
38592;DHT22;24356;48.460;11.450;2022-10-18T07:17:24;11.30;89.90
38592;DHT22;24356;48.460;11.450;2022-10-18T07:19:50;11.30;90.20
38592;DHT22;24356;48.460;11.450;2022-10-18T07:22:16;11.40;90.30
38592;DHT22;24356;48.460;11.450;2022-10-18T07:24:41;11.40;90.50
38592;DHT22;24356;48.460;11.450;2022-10-18T07:27:08;11.50;90.00
38592;DHT22;24356;48.460;11.450;2022-10-18T07:29:35;11.50;90.40
38592;DHT22;24356;48.460;11.450;2022-10-18T07:32:04;11.60;90.20
38592;DHT22;24356;48.460;11.450;2022-10-18T07:34:29;11.60;90.20
38592;DHT22;24356;48.460;11.450;2022-10-18T07:36:55;11.70;90.10
38592;DHT22;24356;48.460;11.450;2022-10-18T07:39:21;11.80;90.10
38592;DHT22;24356;48.460;11.450;2022-10-18T07:41:48;11.90;90.30
38592;DHT22;24356;48.460;11.450;2022-10-18T07:44:14;11.90;90.20
38592;DHT22;24356;48.460;11.450;2022-10-18T07:46:39;12.00;89.60
38592;DHT22;24356;48.460;11.450;2022-10-18T07:49:05;12.10;90.00
38592;DHT22;24356;48.460;11.450;2022-10-18T07:51:31;12.20;89.80
38592;DHT22;24356;48.460;11.450;2022-10-18T07:54:00;12.30;89.90
38592;DHT22;24356;48.460;11.450;2022-10-18T07:56:26;12.50;89.90
38592;DHT22;24356;48.460;11.450;2022-10-18T07:58:54;12.60;89.70
38592;DHT22;24356;48.460;11.450;2022-10-18T08:01:21;12.80;89.80
38592;DHT22;24356;48.460;11.450;2022-10-18T08:03:53;13.00;89.40
38592;DHT22;24356;48.460;11.450;2022-10-18T08:06:21;13.20;89.40
38592;DHT22;24356;48.460;11.450;2022-10-18T08:08:47;13.30;88.70
38592;DHT22;24356;48.460;11.450;2022-10-18T08:11:15;13.50;88.60
38592;DHT22;24356;48.460;11.450;2022-10-18T08:13:43;13.60;87.90
38592;DHT22;24356;48.460;11.450;2022-10-18T08:16:12;13.70;87.90
38592;DHT22;24356;48.460;11.450;2022-10-18T08:18:38;13.90;87.50
38592;DHT22;24356;48.460;11.450;2022-10-18T08:21:06;14.10;86.40
38592;DHT22;24356;48.460;11.450;2022-10-18T08:23:32;14.20;86.50
38592;DHT22;24356;48.460;11.450;2022-10-18T08:26:05;14.30;86.20
38592;DHT22;24356;48.460;11.450;2022-10-18T08:28:32;14.40;86.20
38592;DHT22;24356;48.460;11.450;2022-10-18T08:31:05;14.50;85.60
38592;DHT22;24356;48.460;11.450;2022-10-18T08:33:32;14.60;85.60
38592;DHT22;24356;48.460;11.450;2022-10-18T08:36:00;14.70;85.40
38592;DHT22;24356;48.460;11.450;2022-10-18T08:38:29;14.80;85.00
38592;DHT22;24356;48.460;11.450;2022-10-18T08:40:57;14.90;84.70
38592;DHT22;24356;48.460;11.450;2022-10-18T08:43:37;15.00;84.60
38592;DHT22;24356;48.460;11.450;2022-10-18T08:46:03;15.10;84.60
38592;DHT22;24356;48.460;11.450;2022-10-18T08:48:46;15.20;84.10
38592;DHT22;24356;48.460;11.450;2022-10-18T08:51:29;15.20;84.00
38592;DHT22;24356;48.460;11.450;2022-10-18T08:56:26;15.60;84.00
38592;DHT22;24356;48.460;11.450;2022-10-18T08:58:52;15.80;83.90
38592;DHT22;24356;48.460;11.450;2022-10-18T09:04:26;16.10;82.80
38592;DHT22;24356;48.460;11.450;2022-10-18T09:14:47;16.10;82.00
38592;DHT22;24356;48.460;11.450;2022-10-18T09:17:31;16.10;82.40
38592;DHT22;24356;48.460;11.450;2022-10-18T09:22:52;16.20;82.10
38592;DHT22;24356;48.460;11.450;2022-10-18T09:38:17;16.30;81.70
38592;DHT22;24356;48.460;11.450;2022-10-18T09:40:58;16.30;81.60
38592;DHT22;24356;48.460;11.450;2022-10-18T09:46:05;16.60;81.70
38592;DHT22;24356;48.460;11.450;2022-10-18T09:48:46;16.90;81.60
38592;DHT22;24356;48.460;11.450;2022-10-18T09:51:16;17.20;80.90
38592;DHT22;24356;48.460;11.450;2022-10-18T09:56:34;17.90;79.60
38592;DHT22;24356;48.460;11.450;2022-10-18T09:59:01;18.20;78.60
38592;DHT22;24356;48.460;11.450;2022-10-18T10:01:29;18.40;77.80
38592;DHT22;24356;48.460;11.450;2022-10-18T10:03:56;18.60;77.20
38592;DHT22;24356;48.460;11.450;2022-10-18T10:06:27;18.80;76.60
38592;DHT22;24356;48.460;11.450;2022-10-18T10:09:15;19.00;76.80
38592;DHT22;24356;48.460;11.450;2022-10-18T10:11:47;19.20;75.70
38592;DHT22;24356;48.460;11.450;2022-10-18T10:14:19;19.30;76.00
38592;DHT22;24356;48.460;11.450;2022-10-18T10:16:57;19.50;75.60
38592;DHT22;24356;48.460;11.450;2022-10-18T10:21:52;19.70;75.00
38592;DHT22;24356;48.460;11.450;2022-10-18T10:25:08;19.80;75.40
38592;DHT22;24356;48.460;11.450;2022-10-18T10:27:29;19.90;74.90
38592;DHT22;24356;48.460;11.450;2022-10-18T10:30:00;20.00;74.70
38592;DHT22;24356;48.460;11.450;2022-10-18T10:32:41;20.10;73.70
38592;DHT22;24356;48.460;11.450;2022-10-18T10:37:59;20.30;74.00
38592;DHT22;24356;48.460;11.450;2022-10-18T10:40:27;20.30;73.20
38592;DHT22;24356;48.460;11.450;2022-10-18T10:45:24;20.50;73.20
38592;DHT22;24356;48.460;11.450;2022-10-18T10:47:52;20.60;73.00
38592;DHT22;24356;48.460;11.450;2022-10-18T10:50:26;20.70;73.50
38592;DHT22;24356;48.460;11.450;2022-10-18T10:52:53;20.70;73.30
38592;DHT22;24356;48.460;11.450;2022-10-18T10:55:26;20.70;73.30
38592;DHT22;24356;48.460;11.450;2022-10-18T10:57:53;20.80;72.80
38592;DHT22;24356;48.460;11.450;2022-10-18T11:03:17;20.80;73.00
38592;DHT22;24356;48.460;11.450;2022-10-18T11:08:10;20.90;72.50
38592;DHT22;24356;48.460;11.450;2022-10-18T11:11:26;21.00;72.30
38592;DHT22;24356;48.460;11.450;2022-10-18T11:13:54;21.00;72.90
38592;DHT22;24356;48.460;11.450;2022-10-18T11:16:31;21.00;72.20
38592;DHT22;24356;48.460;11.450;2022-10-18T11:19:01;21.00;72.20
38592;DHT22;24356;48.460;11.450;2022-10-18T11:21:30;21.10;72.00
38592;DHT22;24356;48.460;11.450;2022-10-18T11:23:57;21.10;72.50
38592;DHT22;24356;48.460;11.450;2022-10-18T11:42:49;21.00;72.30
38592;DHT22;24356;48.460;11.450;2022-10-18T11:46:12;21.00;72.30
38592;DHT22;24356;48.460;11.450;2022-10-18T11:48:58;21.00;72.30
38592;DHT22;24356;48.460;11.450;2022-10-18T12:00:00;21.30;72.60
38592;DHT22;24356;48.460;11.450;2022-10-18T12:05:06;21.30;72.50
38592;DHT22;24356;48.460;11.450;2022-10-18T12:07:36;21.40;72.60
38592;DHT22;24356;48.460;11.450;2022-10-18T12:10:03;21.40;72.80
38592;DHT22;24356;48.460;11.450;2022-10-18T12:12:38;21.50;72.50
38592;DHT22;24356;48.460;11.450;2022-10-18T12:15:20;21.50;72.40
38592;DHT22;24356;48.460;11.450;2022-10-18T12:17:50;21.60;72.20
38592;DHT22;24356;48.460;11.450;2022-10-18T12:20:40;21.60;72.10
38592;DHT22;24356;48.460;11.450;2022-10-18T12:23:20;21.60;72.20
38592;DHT22;24356;48.460;11.450;2022-10-18T12:25:52;21.60;72.20
38592;DHT22;24356;48.460;11.450;2022-10-18T12:33:44;21.70;72.30
38592;DHT22;24356;48.460;11.450;2022-10-18T12:38:52;21.80;72.60
38592;DHT22;24356;48.460;11.450;2022-10-18T12:41:28;21.90;72.40
38592;DHT22;24356;48.460;11.450;2022-10-18T12:44:03;21.90;72.30
38592;DHT22;24356;48.460;11.450;2022-10-18T12:46:54;21.90;72.50
38592;DHT22;24356;48.460;11.450;2022-10-18T12:49:37;22.00;72.10
38592;DHT22;24356;48.460;11.450;2022-10-18T12:52:19;22.00;72.00
38592;DHT22;24356;48.460;11.450;2022-10-18T13:16:28;21.70;72.10
38592;DHT22;24356;48.460;11.450;2022-10-18T13:32:34;21.20;73.20
38592;DHT22;24356;48.460;11.450;2022-10-18T13:35:01;21.20;73.20
38592;DHT22;24356;48.460;11.450;2022-10-18T13:37:28;21.10;73.30
38592;DHT22;24356;48.460;11.450;2022-10-18T13:40:20;21.10;73.40
38592;DHT22;24356;48.460;11.450;2022-10-18T13:42:46;21.10;73.50
38592;DHT22;24356;48.460;11.450;2022-10-18T13:50:42;21.20;73.70
38592;DHT22;24356;48.460;11.450;2022-10-18T13:53:39;21.30;73.50
38592;DHT22;24356;48.460;11.450;2022-10-18T13:59:14;21.50;73.20
38592;DHT22;24356;48.460;11.450;2022-10-18T14:02:07;21.60;73.00
38592;DHT22;24356;48.460;11.450;2022-10-18T14:07:42;21.50;72.70
38592;DHT22;24356;48.460;11.450;2022-10-18T14:10:19;21.40;72.90
38592;DHT22;24356;48.460;11.450;2022-10-18T14:12:51;21.40;73.00
38592;DHT22;24356;48.460;11.450;2022-10-18T14:15:25;21.40;73.20
38592;DHT22;24356;48.460;11.450;2022-10-18T14:18:01;21.30;73.30
38592;DHT22;24356;48.460;11.450;2022-10-18T14:20:33;21.20;73.30
38592;DHT22;24356;48.460;11.450;2022-10-18T14:25:46;21.10;73.60
38592;DHT22;24356;48.460;11.450;2022-10-18T14:31:00;20.90;74.90
38592;DHT22;24356;48.460;11.450;2022-10-18T14:33:42;20.80;74.90
38592;DHT22;24356;48.460;11.450;2022-10-18T14:36:21;20.80;74.50
38592;DHT22;24356;48.460;11.450;2022-10-18T14:38:52;20.70;74.70
38592;DHT22;24356;48.460;11.450;2022-10-18T14:43:45;20.60;74.70
38592;DHT22;24356;48.460;11.450;2022-10-18T14:46:26;20.50;74.90
38592;DHT22;24356;48.460;11.450;2022-10-18T14:48:55;20.40;75.40
38592;DHT22;24356;48.460;11.450;2022-10-18T14:51:22;20.40;75.30
38592;DHT22;24356;48.460;11.450;2022-10-18T14:53:50;20.30;75.80
38592;DHT22;24356;48.460;11.450;2022-10-18T14:56:30;20.20;75.90
38592;DHT22;24356;48.460;11.450;2022-10-18T14:59:00;20.10;75.90
38592;DHT22;24356;48.460;11.450;2022-10-18T15:01:29;20.10;76.00
38592;DHT22;24356;48.460;11.450;2022-10-18T15:04:04;20.00;76.40
38592;DHT22;24356;48.460;11.450;2022-10-18T15:06:31;19.90;76.30
38592;DHT22;24356;48.460;11.450;2022-10-18T15:09:00;19.90;76.50
38592;DHT22;24356;48.460;11.450;2022-10-18T15:11:27;19.90;80.40
38592;DHT22;24356;48.460;11.450;2022-10-18T15:14:01;20.00;79.70
38592;DHT22;24356;48.460;11.450;2022-10-18T15:16:30;20.10;79.20
38592;DHT22;24356;48.460;11.450;2022-10-18T15:21:57;20.20;79.00
38592;DHT22;24356;48.460;11.450;2022-10-18T15:24:40;20.20;79.00
38592;DHT22;24356;48.460;11.450;2022-10-18T15:27:29;20.10;79.10
38592;DHT22;24356;48.460;11.450;2022-10-18T15:29:55;20.10;79.10
38592;DHT22;24356;48.460;11.450;2022-10-18T15:32:27;20.00;79.20
38592;DHT22;24356;48.460;11.450;2022-10-18T15:34:53;20.00;79.20
38592;DHT22;24356;48.460;11.450;2022-10-18T15:37:38;19.90;79.30
38592;DHT22;24356;48.460;11.450;2022-10-18T15:40:37;19.90;79.20
38592;DHT22;24356;48.460;11.450;2022-10-18T15:45:58;19.70;79.60
38592;DHT22;24356;48.460;11.450;2022-10-18T15:48:34;19.70;79.70
38592;DHT22;24356;48.460;11.450;2022-10-18T15:51:03;19.60;79.90
38592;DHT22;24356;48.460;11.450;2022-10-18T15:53:42;19.60;79.80
38592;DHT22;24356;48.460;11.450;2022-10-18T15:58:54;19.50;80.00
38592;DHT22;24356;48.460;11.450;2022-10-18T16:01:34;19.40;80.10
38592;DHT22;24356;48.460;11.450;2022-10-18T16:04:05;19.30;80.40
38592;DHT22;24356;48.460;11.450;2022-10-18T16:06:32;19.20;80.50
38592;DHT22;24356;48.460;11.450;2022-10-18T16:09:01;19.10;80.90
38592;DHT22;24356;48.460;11.450;2022-10-18T16:11:28;19.00;80.80
38592;DHT22;24356;48.460;11.450;2022-10-18T16:13:54;18.90;81.00
38592;DHT22;24356;48.460;11.450;2022-10-18T16:16:21;18.80;81.10
38592;DHT22;24356;48.460;11.450;2022-10-18T16:18:47;18.70;81.00
38592;DHT22;24356;48.460;11.450;2022-10-18T16:21:21;18.60;81.40
38592;DHT22;24356;48.460;11.450;2022-10-18T16:23:48;18.50;81.50
38592;DHT22;24356;48.460;11.450;2022-10-18T16:26:14;18.40;81.70
38592;DHT22;24356;48.460;11.450;2022-10-18T16:28:40;18.30;81.60
38592;DHT22;24356;48.460;11.450;2022-10-18T16:31:06;18.20;81.70
38592;DHT22;24356;48.460;11.450;2022-10-18T16:33:32;18.20;81.60
38592;DHT22;24356;48.460;11.450;2022-10-18T16:35:58;18.20;81.10
38592;DHT22;24356;48.460;11.450;2022-10-18T16:38:31;18.20;81.40
38592;DHT22;24356;48.460;11.450;2022-10-18T16:40:57;18.10;81.40
38592;DHT22;24356;48.460;11.450;2022-10-18T16:43:23;18.00;81.60
38592;DHT22;24356;48.460;11.450;2022-10-18T16:45:50;17.90;81.80
38592;DHT22;24356;48.460;11.450;2022-10-18T16:48:19;17.90;82.00
38592;DHT22;24356;48.460;11.450;2022-10-18T16:50:46;17.70;82.30
38592;DHT22;24356;48.460;11.450;2022-10-18T16:53:12;17.60;82.50
38592;DHT22;24356;48.460;11.450;2022-10-18T16:55:39;17.50;82.60
38592;DHT22;24356;48.460;11.450;2022-10-18T16:58:06;17.40;83.00
38592;DHT22;24356;48.460;11.450;2022-10-18T17:00:32;17.40;82.90
38592;DHT22;24356;48.460;11.450;2022-10-18T17:02:58;17.30;83.00
38592;DHT22;24356;48.460;11.450;2022-10-18T17:05:24;17.20;83.20
38592;DHT22;24356;48.460;11.450;2022-10-18T17:07:49;17.20;83.20
38592;DHT22;24356;48.460;11.450;2022-10-18T17:10:19;17.10;83.30
38592;DHT22;24356;48.460;11.450;2022-10-18T17:12:45;17.00;83.40
38592;DHT22;24356;48.460;11.450;2022-10-18T17:15:11;17.00;83.60
38592;DHT22;24356;48.460;11.450;2022-10-18T17:17:37;16.90;83.70
38592;DHT22;24356;48.460;11.450;2022-10-18T17:20:04;16.80;83.80
38592;DHT22;24356;48.460;11.450;2022-10-18T17:22:30;16.70;83.90
38592;DHT22;24356;48.460;11.450;2022-10-18T17:24:56;16.70;83.80
38592;DHT22;24356;48.460;11.450;2022-10-18T17:27:22;16.60;84.10
38592;DHT22;24356;48.460;11.450;2022-10-18T17:29:47;16.60;84.20
38592;DHT22;24356;48.460;11.450;2022-10-18T17:32:13;16.50;84.30
38592;DHT22;24356;48.460;11.450;2022-10-18T17:34:39;16.50;84.60
38592;DHT22;24356;48.460;11.450;2022-10-18T17:37:05;16.40;84.50
38592;DHT22;24356;48.460;11.450;2022-10-18T17:39:31;16.40;84.60
38592;DHT22;24356;48.460;11.450;2022-10-18T17:41:58;16.30;84.80
38592;DHT22;24356;48.460;11.450;2022-10-18T17:44:25;16.30;84.70
38592;DHT22;24356;48.460;11.450;2022-10-18T17:46:51;16.20;84.40
38592;DHT22;24356;48.460;11.450;2022-10-18T17:49:17;16.20;84.80
38592;DHT22;24356;48.460;11.450;2022-10-18T17:51:43;16.20;85.10
38592;DHT22;24356;48.460;11.450;2022-10-18T17:54:10;16.10;84.80
38592;DHT22;24356;48.460;11.450;2022-10-18T17:56:40;16.10;84.80
38592;DHT22;24356;48.460;11.450;2022-10-18T17:59:06;16.00;84.80
38592;DHT22;24356;48.460;11.450;2022-10-18T18:01:32;16.00;84.80
38592;DHT22;24356;48.460;11.450;2022-10-18T18:04:00;16.00;84.70
38592;DHT22;24356;48.460;11.450;2022-10-18T18:06:33;15.90;85.30
38592;DHT22;24356;48.460;11.450;2022-10-18T18:09:02;15.90;85.20
38592;DHT22;24356;48.460;11.450;2022-10-18T18:11:29;15.80;85.30
38592;DHT22;24356;48.460;11.450;2022-10-18T18:13:57;15.80;85.20
38592;DHT22;24356;48.460;11.450;2022-10-18T18:16:25;15.70;85.60
38592;DHT22;24356;48.460;11.450;2022-10-18T18:18:53;15.70;85.40
38592;DHT22;24356;48.460;11.450;2022-10-18T18:21:19;15.70;85.60